sensor_id;sensor_type;location;lat;lon;timestamp;P1;durP1;ratioP1;P2;durP2;ratioP2
13455;SDS011;6800;50.940;6.940;2022-10-15T00:00:06;8.03;;;7.33;;
13455;SDS011;6800;50.940;6.940;2022-10-15T00:04:08;7.80;;;6.87;;
13455;SDS011;6800;50.940;6.940;2022-10-15T00:08:08;7.90;;;7.10;;
13455;SDS011;6800;50.940;6.940;2022-10-15T00:12:10;7.13;;;6.43;;
13455;SDS011;6800;50.940;6.940;2022-10-15T00:16:14;6.23;;;5.63;;
13455;SDS011;6800;50.940;6.940;2022-10-15T00:20:16;5.77;;;5.27;;
13455;SDS011;6800;50.940;6.940;2022-10-15T00:24:17;7.53;;;6.53;;
13455;SDS011;6800;50.940;6.940;2022-10-15T00:28:17;7.80;;;7.10;;
13455;SDS011;6800;50.940;6.940;2022-10-15T00:32:17;9.40;;;8.23;;
13455;SDS011;6800;50.940;6.940;2022-10-15T00:36:18;8.30;;;7.40;;
13455;SDS011;6800;50.940;6.940;2022-10-15T00:40:21;7.60;;;6.83;;
13455;SDS011;6800;50.940;6.940;2022-10-15T00:48:28;8.27;;;7.47;;
13455;SDS011;6800;50.940;6.940;2022-10-15T00:56:39;4.83;;;4.43;;
13455;SDS011;6800;50.940;6.940;2022-10-15T01:00:42;5.10;;;4.30;;
13455;SDS011;6800;50.940;6.940;2022-10-15T01:04:42;6.40;;;5.80;;
13455;SDS011;6800;50.940;6.940;2022-10-15T01:08:46;5.30;;;4.67;;
13455;SDS011;6800;50.940;6.940;2022-10-15T01:12:51;11.47;;;8.97;;
13455;SDS011;6800;50.940;6.940;2022-10-15T01:17:02;8.90;;;8.17;;
13455;SDS011;6800;50.940;6.940;2022-10-15T01:21:15;8.93;;;8.13;;
13455;SDS011;6800;50.940;6.940;2022-10-15T01:25:33;9.53;;;8.53;;
13455;SDS011;6800;50.940;6.940;2022-10-15T01:30:10;10.63;;;9.63;;
13455;SDS011;6800;50.940;6.940;2022-10-15T01:38:55;8.60;;;7.63;;
13455;SDS011;6800;50.940;6.940;2022-10-15T01:42:59;10.20;;;9.17;;
13455;SDS011;6800;50.940;6.940;2022-10-15T01:47:13;7.47;;;6.77;;
13455;SDS011;6800;50.940;6.940;2022-10-15T01:51:20;9.77;;;8.77;;
13455;SDS011;6800;50.940;6.940;2022-10-15T01:55:23;10.80;;;9.70;;
13455;SDS011;6800;50.940;6.940;2022-10-15T01:59:27;10.83;;;9.90;;
13455;SDS011;6800;50.940;6.940;2022-10-15T02:03:31;9.40;;;8.60;;
13455;SDS011;6800;50.940;6.940;2022-10-15T02:07:34;9.40;;;8.60;;
13455;SDS011;6800;50.940;6.940;2022-10-15T02:29:02;9.93;;;8.33;;
13455;SDS011;6800;50.940;6.940;2022-10-15T02:33:05;8.33;;;7.63;;
13455;SDS011;6800;50.940;6.940;2022-10-15T02:37:06;12.07;;;10.87;;
13455;SDS011;6800;50.940;6.940;2022-10-15T02:41:07;12.73;;;10.63;;
13455;SDS011;6800;50.940;6.940;2022-10-15T02:45:08;10.70;;;9.50;;
13455;SDS011;6800;50.940;6.940;2022-10-15T02:49:09;10.83;;;8.90;;
13455;SDS011;6800;50.940;6.940;2022-10-15T02:53:09;10.77;;;7.93;;
13455;SDS011;6800;50.940;6.940;2022-10-15T02:57:09;8.90;;;7.23;;
13455;SDS011;6800;50.940;6.940;2022-10-15T03:01:10;7.60;;;6.77;;
13455;SDS011;6800;50.940;6.940;2022-10-15T03:05:10;6.33;;;5.70;;
13455;SDS011;6800;50.940;6.940;2022-10-15T03:09:10;6.47;;;5.83;;
13455;SDS011;6800;50.940;6.940;2022-10-15T03:13:11;5.83;;;5.23;;
13455;SDS011;6800;50.940;6.940;2022-10-15T03:17:11;6.40;;;5.80;;
13455;SDS011;6800;50.940;6.940;2022-10-15T03:21:11;7.13;;;6.43;;
13455;SDS011;6800;50.940;6.940;2022-10-15T03:25:12;6.50;;;6.00;;
13455;SDS011;6800;50.940;6.940;2022-10-15T03:29:12;5.50;;;5.00;;
13455;SDS011;6800;50.940;6.940;2022-10-15T03:33:12;7.27;;;5.93;;
13455;SDS011;6800;50.940;6.940;2022-10-15T03:37:13;6.50;;;5.87;;
13455;SDS011;6800;50.940;6.940;2022-10-15T03:41:13;5.13;;;4.73;;
13455;SDS011;6800;50.940;6.940;2022-10-15T03:45:13;6.63;;;5.93;;
13455;SDS011;6800;50.940;6.940;2022-10-15T03:49:14;6.23;;;5.43;;
13455;SDS011;6800;50.940;6.940;2022-10-15T03:53:14;5.63;;;5.13;;
13455;SDS011;6800;50.940;6.940;2022-10-15T03:57:14;5.60;;;5.10;;
13455;SDS011;6800;50.940;6.940;2022-10-15T04:01:15;5.60;;;5.10;;
13455;SDS011;6800;50.940;6.940;2022-10-15T04:05:17;5.97;;;5.37;;
13455;SDS011;6800;50.940;6.940;2022-10-15T04:09:17;6.33;;;5.77;;
13455;SDS011;6800;50.940;6.940;2022-10-15T04:13:18;7.13;;;5.30;;
13455;SDS011;6800;50.940;6.940;2022-10-15T04:17:19;6.07;;;5.47;;
13455;SDS011;6800;50.940;6.940;2022-10-15T04:21:19;6.13;;;5.50;;
13455;SDS011;6800;50.940;6.940;2022-10-15T04:25:20;5.60;;;5.10;;
13455;SDS011;6800;50.940;6.940;2022-10-15T04:29:20;7.63;;;5.53;;
13455;SDS011;6800;50.940;6.940;2022-10-15T04:33:21;5.63;;;5.00;;
13455;SDS011;6800;50.940;6.940;2022-10-15T04:37:21;5.70;;;5.20;;
13455;SDS011;6800;50.940;6.940;2022-10-15T04:41:21;6.47;;;5.47;;
13455;SDS011;6800;50.940;6.940;2022-10-15T04:45:21;6.80;;;5.90;;
13455;SDS011;6800;50.940;6.940;2022-10-15T04:49:22;6.67;;;5.97;;
13455;SDS011;6800;50.940;6.940;2022-10-15T04:53:22;6.63;;;6.03;;
13455;SDS011;6800;50.940;6.940;2022-10-15T04:57:22;6.70;;;6.10;;
13455;SDS011;6800;50.940;6.940;2022-10-15T05:01:22;6.83;;;6.20;;
13455;SDS011;6800;50.940;6.940;2022-10-15T05:05:23;7.43;;;6.70;;
13455;SDS011;6800;50.940;6.940;2022-10-15T05:09:23;6.33;;;5.80;;
13455;SDS011;6800;50.940;6.940;2022-10-15T05:13:23;8.00;;;6.53;;
13455;SDS011;6800;50.940;6.940;2022-10-15T05:17:23;7.80;;;6.03;;
13455;SDS011;6800;50.940;6.940;2022-10-15T05:21:24;7.27;;;6.23;;
13455;SDS011;6800;50.940;6.940;2022-10-15T05:25:24;8.33;;;6.13;;
13455;SDS011;6800;50.940;6.940;2022-10-15T05:29:24;6.47;;;5.90;;
13455;SDS011;6800;50.940;6.940;2022-10-15T05:33:26;8.83;;;7.90;;
13455;SDS011;6800;50.940;6.940;2022-10-15T05:37:26;8.00;;;7.23;;
13455;SDS011;6800;50.940;6.940;2022-10-15T05:41:27;8.20;;;7.10;;
13455;SDS011;6800;50.940;6.940;2022-10-15T05:45:28;7.23;;;6.53;;
13455;SDS011;6800;50.940;6.940;2022-10-15T05:49:28;7.07;;;6.47;;
13455;SDS011;6800;50.940;6.940;2022-10-15T05:53:29;7.53;;;6.43;;
13455;SDS011;6800;50.940;6.940;2022-10-15T05:57:30;6.87;;;5.70;;
13455;SDS011;6800;50.940;6.940;2022-10-15T06:01:30;6.03;;;5.40;;
13455;SDS011;6800;50.940;6.940;2022-10-15T06:05:30;6.00;;;5.50;;
13455;SDS011;6800;50.940;6.940;2022-10-15T06:09:31;4.93;;;4.53;;
13455;SDS011;6800;50.940;6.940;2022-10-15T06:13:31;5.90;;;5.33;;
13455;SDS011;6800;50.940;6.940;2022-10-15T06:17:31;5.83;;;5.33;;
13455;SDS011;6800;50.940;6.940;2022-10-15T06:21:31;6.47;;;5.87;;
13455;SDS011;6800;50.940;6.940;2022-10-15T06:25:32;7.57;;;5.77;;
13455;SDS011;6800;50.940;6.940;2022-10-15T06:29:32;6.20;;;5.60;;
13455;SDS011;6800;50.940;6.940;2022-10-15T06:33:33;5.97;;;5.37;;
13455;SDS011;6800;50.940;6.940;2022-10-15T06:37:34;8.53;;;6.10;;
13455;SDS011;6800;50.940;6.940;2022-10-15T06:41:34;6.23;;;5.73;;
13455;SDS011;6800;50.940;6.940;2022-10-15T06:45:35;5.33;;;4.87;;
13455;SDS011;6800;50.940;6.940;2022-10-15T06:49:37;6.37;;;5.83;;
13455;SDS011;6800;50.940;6.940;2022-10-15T06:53:37;5.53;;;4.63;;
13455;SDS011;6800;50.940;6.940;2022-10-15T06:57:41;4.70;;;4.30;;
13455;SDS011;6800;50.940;6.940;2022-10-15T07:01:41;4.80;;;3.90;;
13455;SDS011;6800;50.940;6.940;2022-10-15T07:05:41;4.07;;;3.77;;
13455;SDS011;6800;50.940;6.940;2022-10-15T07:09:41;4.73;;;4.00;;
13455;SDS011;6800;50.940;6.940;2022-10-15T07:13:42;3.90;;;3.50;;
13455;SDS011;6800;50.940;6.940;2022-10-15T07:17:49;3.27;;;2.90;;
13455;SDS011;6800;50.940;6.940;2022-10-15T07:21:51;2.70;;;2.50;;
13455;SDS011;6800;50.940;6.940;2022-10-15T07:25:51;2.97;;;2.37;;
13455;SDS011;6800;50.940;6.940;2022-10-15T07:29:52;2.67;;;1.80;;
13455;SDS011;6800;50.940;6.940;2022-10-15T07:33:52;2.90;;;1.83;;
13455;SDS011;6800;50.940;6.940;2022-10-15T07:37:53;2.37;;;2.17;;
13455;SDS011;6800;50.940;6.940;2022-10-15T07:41:54;2.97;;;2.23;;
13455;SDS011;6800;50.940;6.940;2022-10-15T07:45:54;3.63;;;2.20;;
13455;SDS011;6800;50.940;6.940;2022-10-15T07:49:54;2.17;;;1.98;;
13455;SDS011;6800;50.940;6.940;2022-10-15T07:53:55;2.53;;;2.25;;
13455;SDS011;6800;50.940;6.940;2022-10-15T07:57:56;3.20;;;2.40;;
13455;SDS011;6800;50.940;6.940;2022-10-15T08:01:57;2.92;;;2.55;;
13455;SDS011;6800;50.940;6.940;2022-10-15T08:06:01;2.60;;;2.40;;
13455;SDS011;6800;50.940;6.940;2022-10-15T08:10:02;2.70;;;2.40;;
13455;SDS011;6800;50.940;6.940;2022-10-15T08:14:05;3.50;;;2.57;;
13455;SDS011;6800;50.940;6.940;2022-10-15T08:18:06;2.70;;;2.33;;
13455;SDS011;6800;50.940;6.940;2022-10-15T08:22:06;2.28;;;2.05;;
13455;SDS011;6800;50.940;6.940;2022-10-15T08:26:07;2.38;;;1.92;;
13455;SDS011;6800;50.940;6.940;2022-10-15T08:30:07;2.08;;;1.90;;
13455;SDS011;6800;50.940;6.940;2022-10-15T08:34:08;1.90;;;1.80;;
13455;SDS011;6800;50.940;6.940;2022-10-15T08:38:09;2.90;;;2.20;;
13455;SDS011;6800;50.940;6.940;2022-10-15T08:42:15;1.88;;;1.77;;
13455;SDS011;6800;50.940;6.940;2022-10-15T08:46:32;2.30;;;2.08;;
13455;SDS011;6800;50.940;6.940;2022-10-15T08:54:40;1.92;;;1.83;;
13455;SDS011;6800;50.940;6.940;2022-10-15T08:58:45;2.00;;;1.85;;
13455;SDS011;6800;50.940;6.940;2022-10-15T09:03:07;2.45;;;2.13;;
13455;SDS011;6800;50.940;6.940;2022-10-15T09:11:53;2.42;;;2.10;;
13455;SDS011;6800;50.940;6.940;2022-10-15T09:20:21;2.03;;;1.83;;
13455;SDS011;6800;50.940;6.940;2022-10-15T09:24:26;4.22;;;1.60;;
13455;SDS011;6800;50.940;6.940;2022-10-15T09:28:31;3.25;;;1.63;;
13455;SDS011;6800;50.940;6.940;2022-10-15T09:45:40;0.98;;;0.98;;
13455;SDS011;6800;50.940;6.940;2022-10-15T09:49:40;0.85;;;0.85;;
13455;SDS011;6800;50.940;6.940;2022-10-15T09:53:48;1.77;;;1.20;;
13455;SDS011;6800;50.940;6.940;2022-10-15T09:58:03;1.98;;;1.58;;
13455;SDS011;6800;50.940;6.940;2022-10-15T10:06:14;1.10;;;1.00;;
13455;SDS011;6800;50.940;6.940;2022-10-15T10:10:24;2.63;;;1.50;;
13455;SDS011;6800;50.940;6.940;2022-10-15T10:14:28;1.10;;;1.08;;
13455;SDS011;6800;50.940;6.940;2022-10-15T10:18:42;1.38;;;1.20;;
13455;SDS011;6800;50.940;6.940;2022-10-15T10:22:50;1.45;;;1.10;;
13455;SDS011;6800;50.940;6.940;2022-10-15T10:26:53;1.27;;;1.10;;
13455;SDS011;6800;50.940;6.940;2022-10-15T10:30:58;1.15;;;0.90;;
13455;SDS011;6800;50.940;6.940;2022-10-15T10:35:03;1.85;;;1.20;;
13455;SDS011;6800;50.940;6.940;2022-10-15T10:47:17;1.20;;;1.10;;
13455;SDS011;6800;50.940;6.940;2022-10-15T10:51:25;1.15;;;1.05;;
13455;SDS011;6800;50.940;6.940;2022-10-15T10:55:30;2.38;;;0.90;;
13455;SDS011;6800;50.940;6.940;2022-10-15T10:59:41;1.20;;;0.98;;
13455;SDS011;6800;50.940;6.940;2022-10-15T11:03:47;1.08;;;0.85;;
13455;SDS011;6800;50.940;6.940;2022-10-15T11:07:50;1.50;;;0.88;;
13455;SDS011;6800;50.940;6.940;2022-10-15T11:20:46;1.75;;;0.95;;
13455;SDS011;6800;50.940;6.940;2022-10-15T11:24:58;3.70;;;0.98;;
13455;SDS011;6800;50.940;6.940;2022-10-15T11:29:34;0.65;;;0.65;;
13455;SDS011;6800;50.940;6.940;2022-10-15T11:33:58;1.35;;;0.88;;
13455;SDS011;6800;50.940;6.940;2022-10-15T11:42:57;1.60;;;0.50;;
13455;SDS011;6800;50.940;6.940;2022-10-15T11:52:01;1.52;;;0.60;;
13455;SDS011;6800;50.940;6.940;2022-10-15T11:56:13;1.20;;;0.70;;
13455;SDS011;6800;50.940;6.940;2022-10-15T12:00:40;2.03;;;0.60;;
13455;SDS011;6800;50.940;6.940;2022-10-15T12:04:51;1.00;;;0.90;;
13455;SDS011;6800;50.940;6.940;2022-10-15T12:08:55;1.52;;;0.85;;
13455;SDS011;6800;50.940;6.940;2022-10-15T12:13:15;1.65;;;1.45;;
13455;SDS011;6800;50.940;6.940;2022-10-15T12:21:39;2.15;;;0.75;;
13455;SDS011;6800;50.940;6.940;2022-10-15T12:25:40;1.17;;;0.90;;
13455;SDS011;6800;50.940;6.940;2022-10-15T12:29:46;4.15;;;1.13;;
13455;SDS011;6800;50.940;6.940;2022-10-15T12:33:50;1.20;;;0.63;;
13455;SDS011;6800;50.940;6.940;2022-10-15T12:37:51;1.67;;;1.08;;
13455;SDS011;6800;50.940;6.940;2022-10-15T12:41:52;1.85;;;0.73;;
13455;SDS011;6800;50.940;6.940;2022-10-15T12:45:56;2.50;;;1.42;;
13455;SDS011;6800;50.940;6.940;2022-10-15T12:50:00;3.33;;;1.38;;
13455;SDS011;6800;50.940;6.940;2022-10-15T12:54:15;1.90;;;0.82;;
13455;SDS011;6800;50.940;6.940;2022-10-15T12:58:34;1.83;;;0.93;;
13455;SDS011;6800;50.940;6.940;2022-10-15T13:02:40;0.80;;;0.60;;
13455;SDS011;6800;50.940;6.940;2022-10-15T13:06:45;1.30;;;0.73;;
13455;SDS011;6800;50.940;6.940;2022-10-15T13:10:47;2.15;;;0.52;;
13455;SDS011;6800;50.940;6.940;2022-10-15T13:14:54;1.02;;;0.73;;
13455;SDS011;6800;50.940;6.940;2022-10-15T13:18:58;1.95;;;0.88;;
13455;SDS011;6800;50.940;6.940;2022-10-15T13:27:24;1.00;;;0.60;;
13455;SDS011;6800;50.940;6.940;2022-10-15T13:31:29;1.52;;;1.05;;
13455;SDS011;6800;50.940;6.940;2022-10-15T13:35:35;1.38;;;0.98;;
13455;SDS011;6800;50.940;6.940;2022-10-15T13:39:38;1.10;;;0.70;;
13455;SDS011;6800;50.940;6.940;2022-10-15T13:43:49;2.88;;;1.10;;
13455;SDS011;6800;50.940;6.940;2022-10-15T13:47:51;0.77;;;0.75;;
13455;SDS011;6800;50.940;6.940;2022-10-15T13:51:52;1.35;;;0.70;;
13455;SDS011;6800;50.940;6.940;2022-10-15T13:55:54;1.25;;;0.80;;
13455;SDS011;6800;50.940;6.940;2022-10-15T13:59:56;1.80;;;0.70;;
13455;SDS011;6800;50.940;6.940;2022-10-15T14:03:57;2.60;;;0.70;;
13455;SDS011;6800;50.940;6.940;2022-10-15T14:07:59;2.03;;;1.15;;
13455;SDS011;6800;50.940;6.940;2022-10-15T14:11:59;1.70;;;0.98;;
13455;SDS011;6800;50.940;6.940;2022-10-15T14:16:09;2.58;;;1.58;;
13455;SDS011;6800;50.940;6.940;2022-10-15T14:20:14;1.98;;;1.30;;
13455;SDS011;6800;50.940;6.940;2022-10-15T14:24:20;3.50;;;1.25;;
13455;SDS011;6800;50.940;6.940;2022-10-15T14:28:26;3.17;;;1.20;;
13455;SDS011;6800;50.940;6.940;2022-10-15T14:32:43;1.85;;;1.10;;
13455;SDS011;6800;50.940;6.940;2022-10-15T14:36:45;1.92;;;1.40;;
13455;SDS011;6800;50.940;6.940;2022-10-15T14:40:55;2.43;;;1.90;;
13455;SDS011;6800;50.940;6.940;2022-10-15T14:49:23;2.05;;;1.80;;
13455;SDS011;6800;50.940;6.940;2022-10-15T14:53:27;1.83;;;1.60;;
13455;SDS011;6800;50.940;6.940;2022-10-15T14:57:34;2.05;;;1.33;;
13455;SDS011;6800;50.940;6.940;2022-10-15T15:01:36;2.42;;;1.20;;
13455;SDS011;6800;50.940;6.940;2022-10-15T15:05:49;1.13;;;0.82;;
13455;SDS011;6800;50.940;6.940;2022-10-15T15:09:51;2.08;;;1.42;;
13455;SDS011;6800;50.940;6.940;2022-10-15T15:13:52;1.70;;;1.23;;
13455;SDS011;6800;50.940;6.940;2022-10-15T15:17:53;1.95;;;1.30;;
13455;SDS011;6800;50.940;6.940;2022-10-15T15:21:53;2.80;;;0.70;;
13455;SDS011;6800;50.940;6.940;2022-10-15T15:25:53;0.57;;;0.43;;
13455;SDS011;6800;50.940;6.940;2022-10-15T15:29:54;1.92;;;1.05;;
13455;SDS011;6800;50.940;6.940;2022-10-15T15:33:55;2.80;;;1.33;;
13455;SDS011;6800;50.940;6.940;2022-10-15T15:37:55;1.70;;;1.15;;
13455;SDS011;6800;50.940;6.940;2022-10-15T15:41:56;2.35;;;1.05;;
13455;SDS011;6800;50.940;6.940;2022-10-15T15:45:56;1.52;;;1.10;;
13455;SDS011;6800;50.940;6.940;2022-10-15T15:49:56;1.75;;;1.38;;
13455;SDS011;6800;50.940;6.940;2022-10-15T15:53:57;3.55;;;2.15;;
13455;SDS011;6800;50.940;6.940;2022-10-15T15:57:57;2.00;;;1.80;;
13455;SDS011;6800;50.940;6.940;2022-10-15T16:01:57;3.47;;;1.88;;
13455;SDS011;6800;50.940;6.940;2022-10-15T16:05:58;2.78;;;2.08;;
13455;SDS011;6800;50.940;6.940;2022-10-15T16:09:58;2.10;;;1.70;;
13455;SDS011;6800;50.940;6.940;2022-10-15T16:13:58;2.50;;;1.95;;
13455;SDS011;6800;50.940;6.940;2022-10-15T16:17:59;2.70;;;1.73;;
13455;SDS011;6800;50.940;6.940;2022-10-15T16:21:59;2.28;;;1.92;;
13455;SDS011;6800;50.940;6.940;2022-10-15T16:25:59;3.10;;;1.83;;
13455;SDS011;6800;50.940;6.940;2022-10-15T16:30:00;4.00;;;2.20;;
13455;SDS011;6800;50.940;6.940;2022-10-15T16:34:03;2.53;;;1.90;;
13455;SDS011;6800;50.940;6.940;2022-10-15T16:38:04;2.50;;;2.28;;
13455;SDS011;6800;50.940;6.940;2022-10-15T16:42:05;2.42;;;1.67;;
13455;SDS011;6800;50.940;6.940;2022-10-15T16:46:05;2.75;;;1.95;;
13455;SDS011;6800;50.940;6.940;2022-10-15T16:50:05;3.08;;;1.90;;
13455;SDS011;6800;50.940;6.940;2022-10-15T16:54:08;2.85;;;1.80;;
13455;SDS011;6800;50.940;6.940;2022-10-15T16:58:11;2.67;;;1.90;;
13455;SDS011;6800;50.940;6.940;2022-10-15T17:02:11;2.97;;;1.58;;
13455;SDS011;6800;50.940;6.940;2022-10-15T17:06:16;4.45;;;2.22;;
13455;SDS011;6800;50.940;6.940;2022-10-15T17:10:18;4.20;;;1.77;;
13455;SDS011;6800;50.940;6.940;2022-10-15T17:14:24;4.03;;;2.10;;
13455;SDS011;6800;50.940;6.940;2022-10-15T17:18:24;4.43;;;2.17;;
13455;SDS011;6800;50.940;6.940;2022-10-15T17:22:24;2.85;;;2.15;;
13455;SDS011;6800;50.940;6.940;2022-10-15T17:26:27;2.72;;;1.70;;
13455;SDS011;6800;50.940;6.940;2022-10-15T17:30:29;3.47;;;2.03;;
13455;SDS011;6800;50.940;6.940;2022-10-15T17:34:29;3.40;;;2.10;;
13455;SDS011;6800;50.940;6.940;2022-10-15T17:38:29;2.55;;;1.65;;
13455;SDS011;6800;50.940;6.940;2022-10-15T17:42:30;4.93;;;1.90;;
13455;SDS011;6800;50.940;6.940;2022-10-15T17:46:30;2.22;;;1.90;;
13455;SDS011;6800;50.940;6.940;2022-10-15T17:50:31;3.42;;;2.03;;
13455;SDS011;6800;50.940;6.940;2022-10-15T17:54:31;3.70;;;2.33;;
13455;SDS011;6800;50.940;6.940;2022-10-15T17:58:31;5.38;;;2.17;;
13455;SDS011;6800;50.940;6.940;2022-10-15T18:02:31;6.70;;;2.75;;
13455;SDS011;6800;50.940;6.940;2022-10-15T18:06:32;4.55;;;2.38;;
13455;SDS011;6800;50.940;6.940;2022-10-15T18:10:34;5.95;;;3.03;;
13455;SDS011;6800;50.940;6.940;2022-10-15T18:14:35;5.28;;;4.18;;
13455;SDS011;6800;50.940;6.940;2022-10-15T18:18:36;6.28;;;4.47;;
13455;SDS011;6800;50.940;6.940;2022-10-15T18:22:36;7.97;;;5.10;;
13455;SDS011;6800;50.940;6.940;2022-10-15T18:26:37;8.90;;;5.95;;
13455;SDS011;6800;50.940;6.940;2022-10-15T18:30:37;9.25;;;6.70;;
13455;SDS011;6800;50.940;6.940;2022-10-15T18:34:39;7.35;;;5.10;;
13455;SDS011;6800;50.940;6.940;2022-10-15T18:38:39;6.35;;;3.72;;
13455;SDS011;6800;50.940;6.940;2022-10-15T18:42:42;6.05;;;4.65;;
13455;SDS011;6800;50.940;6.940;2022-10-15T18:46:42;7.93;;;4.85;;
13455;SDS011;6800;50.940;6.940;2022-10-15T18:50:43;7.88;;;4.13;;
13455;SDS011;6800;50.940;6.940;2022-10-15T18:54:44;5.93;;;3.95;;
13455;SDS011;6800;50.940;6.940;2022-10-15T18:58:44;5.18;;;4.47;;
13455;SDS011;6800;50.940;6.940;2022-10-15T19:02:44;8.98;;;6.63;;
13455;SDS011;6800;50.940;6.940;2022-10-15T19:06:46;7.43;;;5.95;;
13455;SDS011;6800;50.940;6.940;2022-10-15T19:10:47;8.80;;;6.40;;
13455;SDS011;6800;50.940;6.940;2022-10-15T19:14:48;8.40;;;5.45;;
13455;SDS011;6800;50.940;6.940;2022-10-15T19:18:48;5.68;;;4.00;;
13455;SDS011;6800;50.940;6.940;2022-10-15T19:22:48;7.97;;;4.88;;
13455;SDS011;6800;50.940;6.940;2022-10-15T19:26:49;6.38;;;5.55;;
13455;SDS011;6800;50.940;6.940;2022-10-15T19:30:56;9.93;;;7.10;;
13455;SDS011;6800;50.940;6.940;2022-10-15T19:34:58;6.30;;;5.60;;
13455;SDS011;6800;50.940;6.940;2022-10-15T19:38:59;9.80;;;7.00;;
13455;SDS011;6800;50.940;6.940;2022-10-15T19:43:01;7.72;;;6.30;;
13455;SDS011;6800;50.940;6.940;2022-10-15T19:47:01;8.63;;;7.73;;
13455;SDS011;6800;50.940;6.940;2022-10-15T19:51:02;8.70;;;6.95;;
13455;SDS011;6800;50.940;6.940;2022-10-15T19:55:03;8.30;;;6.55;;
13455;SDS011;6800;50.940;6.940;2022-10-15T19:59:04;9.57;;;6.93;;
13455;SDS011;6800;50.940;6.940;2022-10-15T20:03:05;9.40;;;7.43;;
13455;SDS011;6800;50.940;6.940;2022-10-15T20:07:07;9.73;;;7.23;;
13455;SDS011;6800;50.940;6.940;2022-10-15T20:11:07;7.40;;;5.60;;
13455;SDS011;6800;50.940;6.940;2022-10-15T20:15:08;7.40;;;5.37;;
13455;SDS011;6800;50.940;6.940;2022-10-15T20:19:08;6.53;;;5.00;;
13455;SDS011;6800;50.940;6.940;2022-10-15T20:23:09;6.43;;;4.50;;
13455;SDS011;6800;50.940;6.940;2022-10-15T20:27:09;6.63;;;4.53;;
13455;SDS011;6800;50.940;6.940;2022-10-15T20:31:11;4.93;;;4.23;;
13455;SDS011;6800;50.940;6.940;2022-10-15T20:35:15;6.93;;;5.33;;
13455;SDS011;6800;50.940;6.940;2022-10-15T20:39:16;6.82;;;4.72;;
13455;SDS011;6800;50.940;6.940;2022-10-15T20:43:16;4.93;;;3.97;;
13455;SDS011;6800;50.940;6.940;2022-10-15T20:47:17;6.80;;;5.13;;
13455;SDS011;6800;50.940;6.940;2022-10-15T20:51:17;7.60;;;6.00;;
13455;SDS011;6800;50.940;6.940;2022-10-15T20:55:18;5.90;;;4.47;;
13455;SDS011;6800;50.940;6.940;2022-10-15T20:59:19;5.93;;;4.60;;
13455;SDS011;6800;50.940;6.940;2022-10-15T21:03:20;6.50;;;5.80;;
13455;SDS011;6800;50.940;6.940;2022-10-15T21:07:20;4.75;;;4.25;;
13455;SDS011;6800;50.940;6.940;2022-10-15T21:11:23;7.80;;;6.73;;
13455;SDS011;6800;50.940;6.940;2022-10-15T21:15:23;6.13;;;5.20;;
13455;SDS011;6800;50.940;6.940;2022-10-15T21:19:24;6.22;;;5.43;;
13455;SDS011;6800;50.940;6.940;2022-10-15T21:23:24;7.43;;;5.30;;
13455;SDS011;6800;50.940;6.940;2022-10-15T21:27:24;7.40;;;4.80;;
13455;SDS011;6800;50.940;6.940;2022-10-15T21:31:25;5.70;;;4.70;;
13455;SDS011;6800;50.940;6.940;2022-10-15T21:35:25;7.03;;;4.87;;
13455;SDS011;6800;50.940;6.940;2022-10-15T21:39:26;7.07;;;5.07;;
13455;SDS011;6800;50.940;6.940;2022-10-15T21:43:26;6.80;;;5.47;;
13455;SDS011;6800;50.940;6.940;2022-10-15T21:47:27;6.50;;;4.93;;
13455;SDS011;6800;50.940;6.940;2022-10-15T21:51:29;6.77;;;4.90;;
13455;SDS011;6800;50.940;6.940;2022-10-15T21:55:31;6.87;;;5.20;;
13455;SDS011;6800;50.940;6.940;2022-10-15T21:59:31;6.53;;;5.70;;
13455;SDS011;6800;50.940;6.940;2022-10-15T22:03:32;7.10;;;5.47;;
13455;SDS011;6800;50.940;6.940;2022-10-15T22:07:32;7.03;;;5.33;;
13455;SDS011;6800;50.940;6.940;2022-10-15T22:11:33;6.68;;;5.22;;
13455;SDS011;6800;50.940;6.940;2022-10-15T22:15:35;4.90;;;3.93;;
13455;SDS011;6800;50.940;6.940;2022-10-15T22:19:35;6.22;;;4.60;;
13455;SDS011;6800;50.940;6.940;2022-10-15T22:23:35;8.05;;;5.80;;
13455;SDS011;6800;50.940;6.940;2022-10-15T22:27:36;5.05;;;3.50;;
13455;SDS011;6800;50.940;6.940;2022-10-15T22:31:36;7.35;;;5.65;;
13455;SDS011;6800;50.940;6.940;2022-10-15T22:35:36;7.23;;;5.40;;
13455;SDS011;6800;50.940;6.940;2022-10-15T22:39:37;6.45;;;5.20;;
13455;SDS011;6800;50.940;6.940;2022-10-15T22:43:39;7.80;;;5.53;;
13455;SDS011;6800;50.940;6.940;2022-10-15T22:47:39;11.00;;;8.55;;
13455;SDS011;6800;50.940;6.940;2022-10-15T22:51:40;7.15;;;5.30;;
13455;SDS011;6800;50.940;6.940;2022-10-15T22:55:40;9.20;;;6.23;;
13455;SDS011;6800;50.940;6.940;2022-10-15T22:59:41;5.25;;;4.70;;
13455;SDS011;6800;50.940;6.940;2022-10-15T23:03:43;7.17;;;4.90;;
13455;SDS011;6800;50.940;6.940;2022-10-15T23:07:45;4.63;;;4.13;;
13455;SDS011;6800;50.940;6.940;2022-10-15T23:11:45;5.30;;;4.10;;
13455;SDS011;6800;50.940;6.940;2022-10-15T23:15:46;4.77;;;3.70;;
13455;SDS011;6800;50.940;6.940;2022-10-15T23:19:47;3.60;;;3.30;;
13455;SDS011;6800;50.940;6.940;2022-10-15T23:23:47;5.20;;;4.50;;
13455;SDS011;6800;50.940;6.940;2022-10-15T23:27:50;3.60;;;2.87;;
13455;SDS011;6800;50.940;6.940;2022-10-15T23:31:50;3.43;;;3.10;;
13455;SDS011;6800;50.940;6.940;2022-10-15T23:36:00;4.40;;;3.03;;
13455;SDS011;6800;50.940;6.940;2022-10-15T23:40:03;4.63;;;3.17;;
13455;SDS011;6800;50.940;6.940;2022-10-15T23:44:04;3.87;;;3.47;;
13455;SDS011;6800;50.940;6.940;2022-10-15T23:48:04;3.70;;;2.90;;
13455;SDS011;6800;50.940;6.940;2022-10-15T23:52:05;2.60;;;2.40;;
13455;SDS011;6800;50.940;6.940;2022-10-15T23:56:05;4.72;;;3.25;;
